| time (UTC) | temp F | wind direction | speed knots | gust knots | rain 1hr in | rain 24hr in | rain mn in | humidity % | barometer mb |
| 20260510064836 | 48 | 108 | 0.0 | 1.7 | 0.00 | 0.22 | 0.06 | 97 | 1006.1 |
| 20260510063326 | 48 | 136 | 0.9 | 2.6 | 0.00 | 0.22 | 0.06 | 97 | 1006.3 |
| 20260510061821 | 49 | 96 | 0.0 | 1.7 | 0.01 | 0.22 | 0.06 | 97 | 1006.3 |
| 20260510060332 | 49 | 140 | 0.9 | 4.3 | 0.02 | 0.22 | 0.06 | 97 | 1006.3 |
| 20260510054827 | 49 | 117 | 0.0 | 3.5 | 0.05 | 0.22 | 0.06 | 97 | 1006.3 |
| 20260510053320 | 50 | 136 | 3.5 | 5.2 | 0.06 | 0.22 | 0.06 | 97 | 1006.3 |
| 20260510051831 | 50 | 96 | 0.9 | 8.7 | 0.05 | 0.21 | 0.05 | 96 | 1006.3 |
| 20260510050325 | 50 | 164 | 2.6 | 5.2 | 0.04 | 0.20 | 0.04 | 96 | 1007.4 |
| 20260510044835 | 51 | 196 | 1.7 | 7.0 | 0.01 | 0.17 | 0.01 | 95 | 1007.4 |
| 20260510043330 | 52 | 227 | 1.7 | 4.3 | 0.00 | 0.16 | 0.00 | 96 | 1006.9 |
| 20260510041822 | 52 | 305 | 3.5 | 8.7 | 0.00 | 0.16 | 0.00 | 97 | 1006.8 |
| 20260510040336 | 51 | 289 | 3.5 | 7.8 | 0.00 | 0.16 | 0.16 | 98 | 1006.4 |
| 20260510034824 | 50 | 310 | 0.9 | 1.7 | 0.00 | 0.16 | 0.16 | 98 | 1005.8 |
| 20260510033321 | 49 | 136 | 0.0 | 2.6 | 0.00 | 0.16 | 0.16 | 97 | 1005.9 |
| 20260510031833 | 49 | 108 | 0.0 | 1.7 | 0.00 | 0.16 | 0.16 | 97 | 1005.9 |
| 20260510030326 | 49 | 80 | 0.0 | 2.6 | 0.00 | 0.16 | 0.16 | 96 | 1005.8 |
| 20260510024824 | 50 | 127 | 1.7 | 2.6 | 0.00 | 0.16 | 0.16 | 96 | 1005.7 |
| 20260510023317 | 51 | 130 | 0.9 | 7.8 | 0.00 | 0.16 | 0.16 | 96 | 1005.6 |
| 20260510021835 | 51 | 119 | 0.9 | 6.1 | 0.00 | 0.16 | 0.16 | 96 | 1005.3 |
| 20260510020325 | 51 | 157 | 2.6 | 7.0 | 0.00 | 0.16 | 0.16 | 96 | 1005.2 |
| 20260510014824 | 51 | 89 | 3.5 | 5.2 | 0.00 | 0.16 | 0.16 | 96 | 1005.5 |
| 20260510013333 | 51 | 173 | 1.7 | 6.1 | 0.00 | 0.16 | 0.16 | 95 | 1005.3 |
| 20260510011823 | 52 | 112 | 1.7 | 4.3 | 0.00 | 0.16 | 0.16 | 95 | 1005.0 |
| 20260510010338 | 52 | 125 | 2.6 | 4.3 | 0.00 | 0.16 | 0.16 | 95 | 1004.9 |
| 20260510004828 | 52 | 87 | 3.5 | 6.1 | 0.00 | 0.16 | 0.16 | 95 | 1005.1 |
| 20260510003324 | 52 | 130 | 1.7 | 3.5 | 0.00 | 0.16 | 0.16 | 95 | 1004.7 |
| 20260510001837 | 53 | 184 | 1.7 | 4.3 | 0.00 | 0.16 | 0.16 | 95 | 1004.6 |
| 20260510000333 | 53 | 114 | 1.7 | 4.3 | 0.00 | 0.16 | 0.16 | 94 | 1004.6 |
| 20260509234823 | 53 | 124 | 0.9 | 5.2 | 0.00 | 0.16 | 0.16 | 94 | 1004.4 |
| 20260509233320 | 53 | 119 | 0.9 | 2.6 | 0.00 | 0.16 | 0.16 | 94 | 1004.2 |
| 20260509231830 | 53 | 107 | 1.7 | 7.0 | 0.00 | 0.16 | 0.16 | 93 | 1004.4 |
| 20260509230321 | 53 | 92 | 1.7 | 6.1 | 0.00 | 0.16 | 0.16 | 94 | 1004.6 |
| 20260509224835 | 53 | 238 | 0.9 | 4.3 | 0.00 | 0.16 | 0.16 | 94 | 1004.4 |
| 20260509223325 | 53 | 65 | 0.9 | 4.3 | 0.00 | 0.16 | 0.16 | 94 | 1004.2 |
| 20260509221823 | 53 | 82 | 1.7 | 6.1 | 0.00 | 0.16 | 0.16 | 94 | 1004.2 |
| 20260509220333 | 53 | 120 | 3.5 | 7.0 | 0.00 | 0.16 | 0.16 | 94 | 1004.3 |
| 20260509214827 | 53 | 126 | 1.7 | 4.3 | 0.00 | 0.16 | 0.16 | 94 | 1004.5 |
| 20260509213337 | 53 | 139 | 1.7 | 8.7 | 0.00 | 0.16 | 0.16 | 94 | 1004.6 |
| 20260509211828 | 53 | 36 | 2.6 | 7.0 | 0.00 | 0.16 | 0.16 | 94 | 1004.7 |
| 20260509210323 | 53 | 168 | 3.5 | 7.8 | 0.00 | 0.16 | 0.16 | 94 | 1004.7 |
| 20260509204834 | 53 | 163 | 1.7 | 4.3 | 0.00 | 0.16 | 0.16 | 94 | 1004.8 |
| 20260509203327 | 52 | 231 | 2.6 | 6.1 | 0.00 | 0.16 | 0.16 | 95 | 1005.1 |
| 20260509201837 | 52 | 355 | 1.7 | 7.0 | 0.00 | 0.16 | 0.16 | 95 | 1005.1 |
| 20260509200331 | 52 | 132 | 3.5 | 8.7 | 0.00 | 0.16 | 0.16 | 95 | 1005.2 |
| 20260509194823 | 52 | 130 | 0.9 | 2.6 | 0.00 | 0.16 | 0.16 | 96 | 1005.2 |
| 20260509193333 | 52 | 338 | 0.9 | 6.1 | 0.00 | 0.16 | 0.16 | 96 | 1005.5 |
| 20260509191828 | 52 | 143 | 2.6 | 5.2 | 0.00 | 0.16 | 0.16 | 96 | 1005.7 |
| 20260509190318 | 52 | 147 | 1.7 | 3.5 | 0.00 | 0.16 | 0.16 | 97 | 1005.7 |
| 20260509184835 | 51 | 130 | 1.7 | 2.6 | 0.00 | 0.16 | 0.16 | 97 | 1005.7 |
| 20260509183326 | 51 | 126 | 2.6 | 5.2 | 0.00 | 0.16 | 0.16 | 97 | 1005.7 |
| 20260509181821 | 51 | 45 | 1.7 | 4.3 | 0.00 | 0.16 | 0.16 | 97 | 1005.7 |
| 20260509180333 | 51 | 89 | 1.7 | 3.5 | 0.00 | 0.16 | 0.16 | 97 | 1005.7 |
| 20260509174822 | 51 | 108 | 1.7 | 4.3 | 0.00 | 0.16 | 0.16 | 97 | 1005.7 |
| 20260509173336 | 51 | 94 | 0.9 | 4.3 | 0.00 | 0.16 | 0.16 | 97 | 1005.7 |
| 20260509171827 | 51 | 71 | 1.7 | 5.2 | 0.01 | 0.16 | 0.16 | 97 | 1005.6 |
| 20260509170325 | 51 | 62 | 2.6 | 7.0 | 0.01 | 0.16 | 0.16 | 97 | 1005.6 |
| 20260509164836 | 51 | 134 | 1.7 | 5.2 | 0.02 | 0.16 | 0.16 | 97 | 1005.8 |
| 20260509163331 | 50 | 106 | 0.9 | 5.2 | 0.02 | 0.16 | 0.16 | 97 | 1005.9 |
| 20260509161821 | 50 | 88 | 1.7 | 5.2 | 0.01 | 0.15 | 0.15 | 97 | 1006.2 |
| 20260509160332 | 50 | 99 | 3.5 | 6.1 | 0.02 | 0.18 | 0.15 | 97 | 1006.3 |
| 20260509154826 | 49 | 150 | 3.5 | 7.8 | 0.02 | 0.17 | 0.14 | 97 | 1006.3 |
| 20260509153318 | 49 | 107 | 2.6 | 5.2 | 0.03 | 0.17 | 0.14 | 97 | 1006.6 |
| 20260509151835 | 49 | 171 | 0.9 | 7.0 | 0.03 | 0.17 | 0.14 | 97 | 1006.8 |
| 20260509150327 | 49 | 142 | 4.3 | 7.8 | 0.03 | 0.19 | 0.13 | 97 | 1006.8 |
| 20260509143333 | 49 | 80 | 1.7 | 6.1 | 0.03 | 0.17 | 0.11 | 98 | 1006.9 |
| 20260509141825 | 49 | 82 | 0.9 | 2.6 | 0.04 | 0.17 | 0.11 | 97 | 1006.9 |
| 20260509140320 | 48 | 80 | 0.9 | 2.6 | 0.04 | 0.18 | 0.10 | 98 | 1006.9 |
| 20260509134831 | 48 | 96 | 0.9 | 2.6 | 0.04 | 0.17 | 0.09 | 97 | 1007.2 |
| 20260509133327 | 47 | 80 | 0.9 | 2.6 | 0.06 | 0.16 | 0.08 | 97 | 1007.3 |
| 20260509131837 | 47 | 83 | 0.9 | 2.6 | 0.06 | 0.15 | 0.07 | 97 | 1007.4 |
| 20260509130331 | 47 | 95 | 0.9 | 1.7 | 0.06 | 0.14 | 0.06 | 97 | 1007.4 |
| 20260509124825 | 47 | 75 | 0.9 | 1.7 | 0.05 | 0.13 | 0.05 | 96 | 1007.4 |
| 20260509123320 | 46 | 86 | 0.9 | 4.3 | 0.02 | 0.10 | 0.02 | 96 | 1007.4 |
| 20260509121830 | 46 | 90 | 0.9 | 4.3 | 0.01 | 0.09 | 0.01 | 96 | 1007.5 |
| 20260509120319 | 46 | 102 | 0.9 | 2.6 | 0.00 | 0.08 | 0.00 | 96 | 1007.6 |
| 20260509114834 | 46 | 155 | 0.9 | 2.6 | 0.00 | 0.08 | 0.00 | 95 | 1007.5 |
| 20260509113324 | 45 | 125 | 1.7 | 4.3 | 0.00 | 0.08 | 0.00 | 95 | 1007.6 |
| 20260509111823 | 45 | 88 | 0.9 | 9.6 | 0.00 | 0.08 | 0.00 | 95 | 1007.6 |
| 20260509110333 | 44 | 98 | 0.9 | 2.6 | 0.00 | 0.08 | 0.00 | 95 | 1007.4 |
| 20260509104828 | 43 | 157 | 0.0 | 1.7 | 0.00 | 0.08 | 0.00 | 95 | 1007.3 |
| 20260509103319 | 42 | 227 | 0.9 | 1.7 | 0.00 | 0.08 | 0.00 | 94 | 1007.2 |
| 20260509101833 | 42 | 301 | 0.0 | 0.9 | 0.00 | 0.08 | 0.00 | 93 | 1007.0 |
| 20260509100327 | 42 | 301 | 0.0 | 0.9 | 0.00 | 0.08 | 0.00 | 92 | 1007.3 |
| 20260509094818 | 42 | 266 | 0.9 | 1.7 | 0.00 | 0.08 | 0.00 | 92 | 1007.3 |
| 20260509093316 | 41 | 249 | 0.0 | 0.9 | 0.00 | 0.08 | 0.00 | 92 | 1007.4 |
| 20260509091831 | 41 | 248 | 0.9 | 2.6 | 0.00 | 0.08 | 0.00 | 92 | 1007.4 |
| 20260509090326 | 41 | 249 | 0.9 | 0.9 | 0.00 | 0.08 | 0.00 | 92 | 1007.8 |
| 20260509084837 | 41 | 249 | 0.9 | 2.6 | 0.00 | 0.08 | 0.00 | 91 | 1007.8 |
| 20260509083328 | 41 | 260 | 0.9 | 1.7 | 0.00 | 0.08 | 0.00 | 89 | 1007.8 |
| 20260509081823 | 41 | 244 | 0.0 | 1.7 | 0.00 | 0.08 | 0.00 | 89 | 1007.9 |
| 20260509080333 | 40 | 213 | 0.9 | 1.7 | 0.00 | 0.08 | 0.00 | 93 | 1008.0 |
| 20260509074829 | 39 | 219 | 0.0 | 0.9 | 0.00 | 0.08 | 0.00 | 94 | 1007.9 |
| 20260509073319 | 38 | 225 | 0.9 | 1.7 | 0.00 | 0.08 | 0.00 | 93 | 1007.9 |
| 20260509071834 | 37 | 161 | 0.9 | 1.7 | 0.00 | 0.08 | 0.00 | 92 | 1007.9 |
| 20260509070326 | 37 | 239 | 0.0 | 0.0 | 0.00 | 0.08 | 0.00 | 92 | 1007.9 |